sensor_id;sensor_type;location;lat;lon;timestamp;P1;durP1;ratioP1;P2;durP2;ratioP2
12631;SDS011;6381;45.748;12.106;2023-12-20T00:00:40;53.17;;;33.43;;
12631;SDS011;6381;45.748;12.106;2023-12-20T00:03:12;51.87;;;32.63;;
12631;SDS011;6381;45.748;12.106;2023-12-20T00:05:41;52.80;;;32.63;;
12631;SDS011;6381;45.748;12.106;2023-12-20T00:08:11;25.67;;;19.03;;
12631;SDS011;6381;45.748;12.106;2023-12-20T00:10:41;34.10;;;23.93;;
12631;SDS011;6381;45.748;12.106;2023-12-20T00:13:13;27.77;;;19.50;;
12631;SDS011;6381;45.748;12.106;2023-12-20T00:15:43;33.77;;;21.67;;
12631;SDS011;6381;45.748;12.106;2023-12-20T00:18:13;21.13;;;17.63;;
12631;SDS011;6381;45.748;12.106;2023-12-20T00:20:43;21.00;;;16.43;;
12631;SDS011;6381;45.748;12.106;2023-12-20T00:23:14;23.80;;;17.60;;
12631;SDS011;6381;45.748;12.106;2023-12-20T00:25:44;19.63;;;14.40;;
12631;SDS011;6381;45.748;12.106;2023-12-20T00:28:16;16.73;;;13.87;;
12631;SDS011;6381;45.748;12.106;2023-12-20T00:30:46;16.60;;;13.13;;
12631;SDS011;6381;45.748;12.106;2023-12-20T00:33:18;15.37;;;12.90;;
12631;SDS011;6381;45.748;12.106;2023-12-20T00:35:48;17.57;;;14.00;;
12631;SDS011;6381;45.748;12.106;2023-12-20T00:38:18;15.90;;;14.17;;
12631;SDS011;6381;45.748;12.106;2023-12-20T00:40:48;15.57;;;13.80;;
12631;SDS011;6381;45.748;12.106;2023-12-20T00:43:20;16.63;;;14.37;;
12631;SDS011;6381;45.748;12.106;2023-12-20T00:45:51;16.87;;;14.17;;
12631;SDS011;6381;45.748;12.106;2023-12-20T00:48:22;16.00;;;14.30;;
12631;SDS011;6381;45.748;12.106;2023-12-20T00:50:55;17.37;;;14.23;;
12631;SDS011;6381;45.748;12.106;2023-12-20T00:53:25;18.10;;;14.83;;
12631;SDS011;6381;45.748;12.106;2023-12-20T00:55:55;17.40;;;14.03;;
12631;SDS011;6381;45.748;12.106;2023-12-20T00:58:27;20.37;;;16.13;;
12631;SDS011;6381;45.748;12.106;2023-12-20T01:00:58;15.80;;;13.93;;
12631;SDS011;6381;45.748;12.106;2023-12-20T01:03:26;23.23;;;16.60;;
12631;SDS011;6381;45.748;12.106;2023-12-20T01:05:56;17.03;;;13.53;;
12631;SDS011;6381;45.748;12.106;2023-12-20T01:08:26;17.07;;;14.37;;
12631;SDS011;6381;45.748;12.106;2023-12-20T01:10:56;17.93;;;15.20;;
12631;SDS011;6381;45.748;12.106;2023-12-20T01:13:27;22.47;;;18.20;;
12631;SDS011;6381;45.748;12.106;2023-12-20T01:15:57;22.13;;;18.03;;
12631;SDS011;6381;45.748;12.106;2023-12-20T01:18:28;18.70;;;14.13;;
12631;SDS011;6381;45.748;12.106;2023-12-20T01:21:01;18.93;;;15.33;;
12631;SDS011;6381;45.748;12.106;2023-12-20T01:23:32;23.00;;;17.83;;
12631;SDS011;6381;45.748;12.106;2023-12-20T01:26:02;13.77;;;12.27;;
12631;SDS011;6381;45.748;12.106;2023-12-20T01:28:35;13.47;;;11.17;;
12631;SDS011;6381;45.748;12.106;2023-12-20T01:31:05;18.33;;;13.40;;
12631;SDS011;6381;45.748;12.106;2023-12-20T01:33:36;12.83;;;11.30;;
12631;SDS011;6381;45.748;12.106;2023-12-20T01:36:06;14.50;;;11.40;;
12631;SDS011;6381;45.748;12.106;2023-12-20T01:38:36;11.60;;;9.87;;
12631;SDS011;6381;45.748;12.106;2023-12-20T01:41:06;10.93;;;9.80;;
12631;SDS011;6381;45.748;12.106;2023-12-20T01:43:38;12.77;;;10.63;;
12631;SDS011;6381;45.748;12.106;2023-12-20T01:46:17;9.87;;;8.87;;
12631;SDS011;6381;45.748;12.106;2023-12-20T01:48:49;12.03;;;9.00;;
12631;SDS011;6381;45.748;12.106;2023-12-20T01:51:20;9.70;;;8.63;;
12631;SDS011;6381;45.748;12.106;2023-12-20T01:53:51;11.90;;;9.63;;
12631;SDS011;6381;45.748;12.106;2023-12-20T01:56:20;10.87;;;9.50;;
12631;SDS011;6381;45.748;12.106;2023-12-20T01:58:52;10.60;;;9.10;;
12631;SDS011;6381;45.748;12.106;2023-12-20T02:01:23;11.60;;;10.40;;
12631;SDS011;6381;45.748;12.106;2023-12-20T02:03:56;11.17;;;8.97;;
12631;SDS011;6381;45.748;12.106;2023-12-20T02:06:26;9.53;;;8.53;;
12631;SDS011;6381;45.748;12.106;2023-12-20T02:09:00;10.23;;;9.23;;
12631;SDS011;6381;45.748;12.106;2023-12-20T02:11:30;9.77;;;8.43;;
12631;SDS011;6381;45.748;12.106;2023-12-20T02:14:01;10.23;;;9.00;;
12631;SDS011;6381;45.748;12.106;2023-12-20T02:16:31;9.63;;;8.50;;
12631;SDS011;6381;45.748;12.106;2023-12-20T02:19:01;11.03;;;8.30;;
12631;SDS011;6381;45.748;12.106;2023-12-20T02:21:34;8.93;;;8.07;;
12631;SDS011;6381;45.748;12.106;2023-12-20T02:24:05;9.20;;;8.20;;
12631;SDS011;6381;45.748;12.106;2023-12-20T02:26:35;9.47;;;8.23;;
12631;SDS011;6381;45.748;12.106;2023-12-20T02:29:05;9.47;;;8.03;;
12631;SDS011;6381;45.748;12.106;2023-12-20T02:31:34;10.40;;;9.30;;
12631;SDS011;6381;45.748;12.106;2023-12-20T02:34:04;9.03;;;8.13;;
12631;SDS011;6381;45.748;12.106;2023-12-20T02:36:36;8.93;;;8.00;;
12631;SDS011;6381;45.748;12.106;2023-12-20T02:39:06;11.83;;;8.70;;
12631;SDS011;6381;45.748;12.106;2023-12-20T02:41:36;9.13;;;8.20;;
12631;SDS011;6381;45.748;12.106;2023-12-20T02:44:07;9.73;;;8.73;;
12631;SDS011;6381;45.748;12.106;2023-12-20T02:46:39;10.13;;;8.37;;
12631;SDS011;6381;45.748;12.106;2023-12-20T02:49:10;9.83;;;8.93;;
12631;SDS011;6381;45.748;12.106;2023-12-20T02:51:41;10.50;;;8.90;;
12631;SDS011;6381;45.748;12.106;2023-12-20T02:54:11;9.27;;;8.30;;
12631;SDS011;6381;45.748;12.106;2023-12-20T02:56:41;10.80;;;9.33;;
12631;SDS011;6381;45.748;12.106;2023-12-20T02:59:10;10.10;;;8.40;;
12631;SDS011;6381;45.748;12.106;2023-12-20T03:01:41;9.40;;;8.30;;
12631;SDS011;6381;45.748;12.106;2023-12-20T03:04:12;9.60;;;8.63;;
12631;SDS011;6381;45.748;12.106;2023-12-20T03:06:44;10.80;;;8.20;;
12631;SDS011;6381;45.748;12.106;2023-12-20T03:09:14;10.50;;;8.20;;
12631;SDS011;6381;45.748;12.106;2023-12-20T03:11:44;8.67;;;7.83;;
12631;SDS011;6381;45.748;12.106;2023-12-20T03:14:14;11.07;;;8.50;;
12631;SDS011;6381;45.748;12.106;2023-12-20T03:16:46;11.93;;;8.73;;
12631;SDS011;6381;45.748;12.106;2023-12-20T03:19:18;11.97;;;9.73;;
12631;SDS011;6381;45.748;12.106;2023-12-20T03:21:49;10.40;;;9.23;;
12631;SDS011;6381;45.748;12.106;2023-12-20T03:24:20;10.03;;;8.90;;
12631;SDS011;6381;45.748;12.106;2023-12-20T03:26:50;10.13;;;8.50;;
12631;SDS011;6381;45.748;12.106;2023-12-20T03:29:20;10.73;;;8.63;;
12631;SDS011;6381;45.748;12.106;2023-12-20T03:31:50;10.03;;;8.80;;
12631;SDS011;6381;45.748;12.106;2023-12-20T03:34:20;11.57;;;8.30;;
12631;SDS011;6381;45.748;12.106;2023-12-20T03:36:53;10.57;;;8.50;;
12631;SDS011;6381;45.748;12.106;2023-12-20T03:39:23;9.57;;;8.43;;
12631;SDS011;6381;45.748;12.106;2023-12-20T03:41:53;12.23;;;9.50;;
12631;SDS011;6381;45.748;12.106;2023-12-20T03:44:23;9.97;;;8.50;;
12631;SDS011;6381;45.748;12.106;2023-12-20T03:46:53;11.83;;;9.17;;
12631;SDS011;6381;45.748;12.106;2023-12-20T03:49:23;10.97;;;9.50;;
12631;SDS011;6381;45.748;12.106;2023-12-20T03:51:55;10.60;;;9.60;;
12631;SDS011;6381;45.748;12.106;2023-12-20T03:54:25;10.27;;;8.77;;
12631;SDS011;6381;45.748;12.106;2023-12-20T03:56:56;10.77;;;9.33;;
12631;SDS011;6381;45.748;12.106;2023-12-20T03:59:26;10.93;;;8.53;;
12631;SDS011;6381;45.748;12.106;2023-12-20T04:01:56;11.30;;;9.07;;
12631;SDS011;6381;45.748;12.106;2023-12-20T04:04:26;10.33;;;8.47;;
12631;SDS011;6381;45.748;12.106;2023-12-20T04:06:58;9.10;;;7.87;;
12631;SDS011;6381;45.748;12.106;2023-12-20T04:09:28;9.27;;;8.27;;
12631;SDS011;6381;45.748;12.106;2023-12-20T04:11:58;10.23;;;7.67;;
12631;SDS011;6381;45.748;12.106;2023-12-20T04:14:28;9.57;;;7.93;;
12631;SDS011;6381;45.748;12.106;2023-12-20T04:16:58;8.63;;;7.73;;
12631;SDS011;6381;45.748;12.106;2023-12-20T04:19:30;8.97;;;8.07;;
12631;SDS011;6381;45.748;12.106;2023-12-20T04:22:04;10.87;;;9.23;;
12631;SDS011;6381;45.748;12.106;2023-12-20T04:24:34;11.30;;;8.57;;
12631;SDS011;6381;45.748;12.106;2023-12-20T04:27:06;11.27;;;8.27;;
12631;SDS011;6381;45.748;12.106;2023-12-20T04:29:36;12.07;;;7.87;;
12631;SDS011;6381;45.748;12.106;2023-12-20T04:32:06;8.80;;;7.90;;
12631;SDS011;6381;45.748;12.106;2023-12-20T04:34:37;12.60;;;8.33;;
12631;SDS011;6381;45.748;12.106;2023-12-20T04:37:09;10.30;;;8.93;;
12631;SDS011;6381;45.748;12.106;2023-12-20T04:39:40;11.93;;;8.77;;
12631;SDS011;6381;45.748;12.106;2023-12-20T04:42:11;9.67;;;8.17;;
12631;SDS011;6381;45.748;12.106;2023-12-20T04:44:42;9.37;;;8.00;;
12631;SDS011;6381;45.748;12.106;2023-12-20T04:47:13;9.70;;;7.57;;
12631;SDS011;6381;45.748;12.106;2023-12-20T04:49:44;9.47;;;8.30;;
12631;SDS011;6381;45.748;12.106;2023-12-20T04:52:16;10.13;;;8.43;;
12631;SDS011;6381;45.748;12.106;2023-12-20T04:54:50;10.00;;;8.27;;
12631;SDS011;6381;45.748;12.106;2023-12-20T04:57:21;9.47;;;8.47;;
12631;SDS011;6381;45.748;12.106;2023-12-20T04:59:54;8.80;;;7.90;;
12631;SDS011;6381;45.748;12.106;2023-12-20T05:02:25;8.30;;;7.40;;
12631;SDS011;6381;45.748;12.106;2023-12-20T05:04:56;9.07;;;7.50;;
12631;SDS011;6381;45.748;12.106;2023-12-20T05:07:28;11.13;;;7.70;;
12631;SDS011;6381;45.748;12.106;2023-12-20T05:09:59;9.20;;;8.27;;
12631;SDS011;6381;45.748;12.106;2023-12-20T05:12:31;9.97;;;8.23;;
12631;SDS011;6381;45.748;12.106;2023-12-20T05:15:01;12.43;;;8.60;;
12631;SDS011;6381;45.748;12.106;2023-12-20T05:17:32;10.57;;;9.27;;
12631;SDS011;6381;45.748;12.106;2023-12-20T05:20:06;13.07;;;9.97;;
12631;SDS011;6381;45.748;12.106;2023-12-20T05:22:39;11.10;;;9.50;;
12631;SDS011;6381;45.748;12.106;2023-12-20T05:25:10;11.50;;;9.37;;
12631;SDS011;6381;45.748;12.106;2023-12-20T05:27:39;12.53;;;10.50;;
12631;SDS011;6381;45.748;12.106;2023-12-20T05:30:10;11.60;;;10.33;;
12631;SDS011;6381;45.748;12.106;2023-12-20T05:32:41;12.03;;;10.83;;
12631;SDS011;6381;45.748;12.106;2023-12-20T05:35:13;14.27;;;10.73;;
12631;SDS011;6381;45.748;12.106;2023-12-20T05:37:44;11.13;;;10.00;;
12631;SDS011;6381;45.748;12.106;2023-12-20T05:40:15;12.90;;;11.37;;
12631;SDS011;6381;45.748;12.106;2023-12-20T05:42:46;12.93;;;11.00;;
12631;SDS011;6381;45.748;12.106;2023-12-20T05:45:16;13.70;;;11.40;;
12631;SDS011;6381;45.748;12.106;2023-12-20T05:47:46;15.67;;;12.40;;
12631;SDS011;6381;45.748;12.106;2023-12-20T05:50:15;15.47;;;12.10;;
12631;SDS011;6381;45.748;12.106;2023-12-20T05:52:47;15.03;;;10.80;;
12631;SDS011;6381;45.748;12.106;2023-12-20T05:55:18;17.80;;;15.20;;
12631;SDS011;6381;45.748;12.106;2023-12-20T05:57:48;20.73;;;11.37;;
12631;SDS011;6381;45.748;12.106;2023-12-20T06:00:19;13.20;;;11.90;;
12631;SDS011;6381;45.748;12.106;2023-12-20T06:02:49;14.60;;;12.20;;
12631;SDS011;6381;45.748;12.106;2023-12-20T06:05:19;16.00;;;12.20;;
12631;SDS011;6381;45.748;12.106;2023-12-20T06:07:54;14.77;;;11.53;;
12631;SDS011;6381;45.748;12.106;2023-12-20T06:10:30;16.53;;;12.53;;
12631;SDS011;6381;45.748;12.106;2023-12-20T06:13:00;14.20;;;11.47;;
12631;SDS011;6381;45.748;12.106;2023-12-20T06:15:34;12.73;;;10.80;;
12631;SDS011;6381;45.748;12.106;2023-12-20T06:18:04;13.33;;;11.63;;
12631;SDS011;6381;45.748;12.106;2023-12-20T06:20:35;14.23;;;11.23;;
12631;SDS011;6381;45.748;12.106;2023-12-20T06:23:07;15.77;;;10.70;;
12631;SDS011;6381;45.748;12.106;2023-12-20T06:25:37;22.13;;;17.47;;
12631;SDS011;6381;45.748;12.106;2023-12-20T06:28:07;23.63;;;18.97;;
12631;SDS011;6381;45.748;12.106;2023-12-20T06:30:38;22.63;;;18.03;;
12631;SDS011;6381;45.748;12.106;2023-12-20T06:33:11;14.83;;;12.53;;
12631;SDS011;6381;45.748;12.106;2023-12-20T06:35:41;16.63;;;12.20;;
12631;SDS011;6381;45.748;12.106;2023-12-20T06:38:12;14.33;;;11.97;;
12631;SDS011;6381;45.748;12.106;2023-12-20T06:40:43;16.70;;;12.07;;
12631;SDS011;6381;45.748;12.106;2023-12-20T06:43:13;14.73;;;11.53;;
12631;SDS011;6381;45.748;12.106;2023-12-20T06:46:03;15.10;;;11.27;;
12631;SDS011;6381;45.748;12.106;2023-12-20T06:48:36;15.57;;;12.20;;
12631;SDS011;6381;45.748;12.106;2023-12-20T06:51:06;14.80;;;12.20;;
12631;SDS011;6381;45.748;12.106;2023-12-20T06:53:43;15.23;;;12.17;;
12631;SDS011;6381;45.748;12.106;2023-12-20T06:56:15;15.90;;;12.00;;
12631;SDS011;6381;45.748;12.106;2023-12-20T06:58:46;20.03;;;12.03;;
12631;SDS011;6381;45.748;12.106;2023-12-20T07:01:18;16.80;;;12.03;;
12631;SDS011;6381;45.748;12.106;2023-12-20T07:03:51;16.03;;;11.93;;
12631;SDS011;6381;45.748;12.106;2023-12-20T07:06:21;16.77;;;12.37;;
12631;SDS011;6381;45.748;12.106;2023-12-20T07:08:54;16.63;;;11.87;;
12631;SDS011;6381;45.748;12.106;2023-12-20T07:11:28;15.73;;;12.77;;
12631;SDS011;6381;45.748;12.106;2023-12-20T07:14:07;20.90;;;14.47;;
12631;SDS011;6381;45.748;12.106;2023-12-20T07:16:41;17.80;;;14.60;;
12631;SDS011;6381;45.748;12.106;2023-12-20T07:19:25;19.47;;;13.20;;
12631;SDS011;6381;45.748;12.106;2023-12-20T07:21:56;17.70;;;13.33;;
12631;SDS011;6381;45.748;12.106;2023-12-20T07:24:28;16.00;;;14.30;;
12631;SDS011;6381;45.748;12.106;2023-12-20T07:26:58;15.60;;;12.77;;
12631;SDS011;6381;45.748;12.106;2023-12-20T07:29:29;15.83;;;12.43;;
12631;SDS011;6381;45.748;12.106;2023-12-20T07:32:01;16.17;;;12.97;;
12631;SDS011;6381;45.748;12.106;2023-12-20T07:34:35;15.60;;;12.77;;
12631;SDS011;6381;45.748;12.106;2023-12-20T07:37:06;15.40;;;12.27;;
12631;SDS011;6381;45.748;12.106;2023-12-20T07:39:39;15.03;;;12.13;;
12631;SDS011;6381;45.748;12.106;2023-12-20T07:42:09;14.27;;;12.77;;
12631;SDS011;6381;45.748;12.106;2023-12-20T07:44:39;16.07;;;13.60;;
12631;SDS011;6381;45.748;12.106;2023-12-20T07:47:09;19.33;;;14.13;;
12631;SDS011;6381;45.748;12.106;2023-12-20T07:49:43;17.77;;;13.30;;
12631;SDS011;6381;45.748;12.106;2023-12-20T07:52:14;18.37;;;13.37;;
12631;SDS011;6381;45.748;12.106;2023-12-20T07:54:45;22.03;;;16.63;;
12631;SDS011;6381;45.748;12.106;2023-12-20T07:57:15;25.43;;;16.17;;
12631;SDS011;6381;45.748;12.106;2023-12-20T07:59:45;23.57;;;16.07;;
12631;SDS011;6381;45.748;12.106;2023-12-20T08:02:14;25.80;;;17.30;;
12631;SDS011;6381;45.748;12.106;2023-12-20T08:04:44;20.43;;;15.83;;
12631;SDS011;6381;45.748;12.106;2023-12-20T08:07:14;23.70;;;16.77;;
12631;SDS011;6381;45.748;12.106;2023-12-20T08:09:45;29.63;;;19.53;;
12631;SDS011;6381;45.748;12.106;2023-12-20T08:12:15;33.57;;;21.43;;
12631;SDS011;6381;45.748;12.106;2023-12-20T08:14:45;36.33;;;24.13;;
12631;SDS011;6381;45.748;12.106;2023-12-20T08:17:15;28.40;;;20.13;;
12631;SDS011;6381;45.748;12.106;2023-12-20T08:19:46;28.00;;;20.07;;
12631;SDS011;6381;45.748;12.106;2023-12-20T08:22:16;27.20;;;18.97;;
12631;SDS011;6381;45.748;12.106;2023-12-20T08:24:47;25.73;;;17.43;;
12631;SDS011;6381;45.748;12.106;2023-12-20T08:27:17;28.20;;;23.70;;
12631;SDS011;6381;45.748;12.106;2023-12-20T08:29:47;31.03;;;17.33;;
12631;SDS011;6381;45.748;12.106;2023-12-20T08:32:17;25.17;;;18.47;;
12631;SDS011;6381;45.748;12.106;2023-12-20T08:34:47;23.43;;;18.77;;
12631;SDS011;6381;45.748;12.106;2023-12-20T08:37:18;27.20;;;18.10;;
12631;SDS011;6381;45.748;12.106;2023-12-20T08:39:49;26.37;;;16.57;;
12631;SDS011;6381;45.748;12.106;2023-12-20T08:42:19;19.20;;;15.00;;
12631;SDS011;6381;45.748;12.106;2023-12-20T08:44:49;24.87;;;15.23;;
12631;SDS011;6381;45.748;12.106;2023-12-20T08:47:19;20.43;;;15.33;;
12631;SDS011;6381;45.748;12.106;2023-12-20T08:49:50;20.80;;;15.53;;
12631;SDS011;6381;45.748;12.106;2023-12-20T08:52:23;19.37;;;14.70;;
12631;SDS011;6381;45.748;12.106;2023-12-20T08:54:56;24.87;;;15.33;;
12631;SDS011;6381;45.748;12.106;2023-12-20T08:57:26;17.97;;;14.30;;
12631;SDS011;6381;45.748;12.106;2023-12-20T08:59:56;19.27;;;13.77;;
12631;SDS011;6381;45.748;12.106;2023-12-20T09:02:26;19.00;;;14.43;;
12631;SDS011;6381;45.748;12.106;2023-12-20T09:04:57;16.77;;;14.03;;
12631;SDS011;6381;45.748;12.106;2023-12-20T09:07:27;20.00;;;14.40;;
12631;SDS011;6381;45.748;12.106;2023-12-20T09:10:00;22.67;;;15.17;;
12631;SDS011;6381;45.748;12.106;2023-12-20T09:12:31;21.53;;;14.00;;
12631;SDS011;6381;45.748;12.106;2023-12-20T09:15:01;19.47;;;13.40;;
12631;SDS011;6381;45.748;12.106;2023-12-20T09:17:31;17.40;;;14.37;;
12631;SDS011;6381;45.748;12.106;2023-12-20T09:20:02;17.90;;;13.23;;
12631;SDS011;6381;45.748;12.106;2023-12-20T09:22:34;18.30;;;13.33;;
12631;SDS011;6381;45.748;12.106;2023-12-20T09:25:07;16.20;;;11.90;;
12631;SDS011;6381;45.748;12.106;2023-12-20T09:27:38;13.07;;;10.63;;
12631;SDS011;6381;45.748;12.106;2023-12-20T09:30:09;14.90;;;10.63;;
12631;SDS011;6381;45.748;12.106;2023-12-20T09:32:51;14.67;;;10.13;;
12631;SDS011;6381;45.748;12.106;2023-12-20T09:35:21;16.43;;;9.83;;
12631;SDS011;6381;45.748;12.106;2023-12-20T09:37:52;12.20;;;9.60;;
12631;SDS011;6381;45.748;12.106;2023-12-20T09:40:23;12.80;;;10.43;;
12631;SDS011;6381;45.748;12.106;2023-12-20T09:42:56;12.93;;;9.60;;
12631;SDS011;6381;45.748;12.106;2023-12-20T09:45:27;13.83;;;11.03;;
12631;SDS011;6381;45.748;12.106;2023-12-20T09:47:59;15.53;;;10.47;;
12631;SDS011;6381;45.748;12.106;2023-12-20T09:50:30;14.43;;;10.43;;
12631;SDS011;6381;45.748;12.106;2023-12-20T09:53:01;12.77;;;10.60;;
12631;SDS011;6381;45.748;12.106;2023-12-20T09:55:34;17.77;;;12.70;;
12631;SDS011;6381;45.748;12.106;2023-12-20T09:58:05;17.07;;;12.17;;
12631;SDS011;6381;45.748;12.106;2023-12-20T10:00:35;17.60;;;11.80;;
12631;SDS011;6381;45.748;12.106;2023-12-20T10:03:05;17.90;;;12.80;;
12631;SDS011;6381;45.748;12.106;2023-12-20T10:05:37;20.40;;;14.30;;
12631;SDS011;6381;45.748;12.106;2023-12-20T10:08:24;19.03;;;14.70;;
12631;SDS011;6381;45.748;12.106;2023-12-20T10:10:55;19.03;;;14.77;;
12631;SDS011;6381;45.748;12.106;2023-12-20T10:13:30;20.47;;;15.63;;
12631;SDS011;6381;45.748;12.106;2023-12-20T10:16:02;19.33;;;16.17;;
12631;SDS011;6381;45.748;12.106;2023-12-20T10:18:32;22.63;;;17.30;;
12631;SDS011;6381;45.748;12.106;2023-12-20T10:21:07;20.37;;;15.77;;
12631;SDS011;6381;45.748;12.106;2023-12-20T10:23:40;23.80;;;17.67;;
12631;SDS011;6381;45.748;12.106;2023-12-20T10:26:19;17.60;;;15.07;;
12631;SDS011;6381;45.748;12.106;2023-12-20T10:28:50;19.23;;;13.87;;
12631;SDS011;6381;45.748;12.106;2023-12-20T10:31:29;15.00;;;12.50;;
12631;SDS011;6381;45.748;12.106;2023-12-20T10:34:01;16.90;;;12.57;;
12631;SDS011;6381;45.748;12.106;2023-12-20T10:36:32;14.10;;;11.70;;
12631;SDS011;6381;45.748;12.106;2023-12-20T10:39:06;18.07;;;11.70;;
12631;SDS011;6381;45.748;12.106;2023-12-20T10:41:40;13.90;;;11.03;;
12631;SDS011;6381;45.748;12.106;2023-12-20T10:44:11;12.43;;;10.60;;
12631;SDS011;6381;45.748;12.106;2023-12-20T10:46:42;17.03;;;11.33;;
12631;SDS011;6381;45.748;12.106;2023-12-20T10:49:19;21.83;;;10.83;;
12631;SDS011;6381;45.748;12.106;2023-12-20T10:51:50;17.47;;;11.37;;
12631;SDS011;6381;45.748;12.106;2023-12-20T10:54:25;20.93;;;11.37;;
12631;SDS011;6381;45.748;12.106;2023-12-20T10:56:57;16.20;;;12.53;;
12631;SDS011;6381;45.748;12.106;2023-12-20T10:59:27;15.70;;;11.33;;
12631;SDS011;6381;45.748;12.106;2023-12-20T11:02:02;21.50;;;16.40;;
12631;SDS011;6381;45.748;12.106;2023-12-20T11:04:39;17.17;;;13.33;;
12631;SDS011;6381;45.748;12.106;2023-12-20T11:07:19;13.70;;;11.83;;
12631;SDS011;6381;45.748;12.106;2023-12-20T11:09:57;13.47;;;11.20;;
12631;SDS011;6381;45.748;12.106;2023-12-20T11:12:35;14.47;;;10.80;;
12631;SDS011;6381;45.748;12.106;2023-12-20T11:15:13;14.37;;;10.30;;
12631;SDS011;6381;45.748;12.106;2023-12-20T11:17:44;14.60;;;11.70;;
12631;SDS011;6381;45.748;12.106;2023-12-20T11:20:18;13.63;;;10.87;;
12631;SDS011;6381;45.748;12.106;2023-12-20T11:22:52;13.20;;;10.80;;
12631;SDS011;6381;45.748;12.106;2023-12-20T11:25:23;15.33;;;11.23;;
12631;SDS011;6381;45.748;12.106;2023-12-20T11:30:47;16.30;;;11.43;;
12631;SDS011;6381;45.748;12.106;2023-12-20T11:33:21;15.13;;;12.70;;
12631;SDS011;6381;45.748;12.106;2023-12-20T11:35:56;15.73;;;12.60;;
12631;SDS011;6381;45.748;12.106;2023-12-20T11:38:26;19.03;;;12.77;;
12631;SDS011;6381;45.748;12.106;2023-12-20T11:40:56;17.50;;;14.23;;
12631;SDS011;6381;45.748;12.106;2023-12-20T11:43:34;17.73;;;14.83;;
12631;SDS011;6381;45.748;12.106;2023-12-20T11:46:06;22.90;;;15.97;;
12631;SDS011;6381;45.748;12.106;2023-12-20T11:48:37;21.67;;;19.43;;
12631;SDS011;6381;45.748;12.106;2023-12-20T11:51:09;23.23;;;20.77;;
12631;SDS011;6381;45.748;12.106;2023-12-20T11:53:40;19.10;;;16.40;;
12631;SDS011;6381;45.748;12.106;2023-12-20T11:56:11;21.17;;;17.93;;
12631;SDS011;6381;45.748;12.106;2023-12-20T11:58:42;25.17;;;18.30;;
12631;SDS011;6381;45.748;12.106;2023-12-20T12:01:16;23.27;;;17.90;;
12631;SDS011;6381;45.748;12.106;2023-12-20T12:03:45;22.20;;;17.60;;
12631;SDS011;6381;45.748;12.106;2023-12-20T12:06:15;23.70;;;18.13;;
12631;SDS011;6381;45.748;12.106;2023-12-20T12:08:46;22.20;;;17.63;;
12631;SDS011;6381;45.748;12.106;2023-12-20T12:11:15;21.13;;;17.83;;
12631;SDS011;6381;45.748;12.106;2023-12-20T12:13:47;26.93;;;20.97;;
12631;SDS011;6381;45.748;12.106;2023-12-20T12:16:17;29.87;;;21.30;;
12631;SDS011;6381;45.748;12.106;2023-12-20T12:18:55;30.83;;;25.67;;
12631;SDS011;6381;45.748;12.106;2023-12-20T12:21:25;34.40;;;29.93;;
12631;SDS011;6381;45.748;12.106;2023-12-20T12:24:06;48.03;;;38.27;;
12631;SDS011;6381;45.748;12.106;2023-12-20T12:26:37;40.10;;;33.77;;
12631;SDS011;6381;45.748;12.106;2023-12-20T12:29:11;35.60;;;28.73;;
12631;SDS011;6381;45.748;12.106;2023-12-20T12:31:43;31.23;;;26.13;;
12631;SDS011;6381;45.748;12.106;2023-12-20T12:34:14;35.27;;;29.87;;
12631;SDS011;6381;45.748;12.106;2023-12-20T12:36:46;37.10;;;33.00;;
12631;SDS011;6381;45.748;12.106;2023-12-20T12:39:20;39.93;;;31.80;;
12631;SDS011;6381;45.748;12.106;2023-12-20T12:41:52;38.80;;;31.00;;
12631;SDS011;6381;45.748;12.106;2023-12-20T12:44:28;38.40;;;32.00;;
12631;SDS011;6381;45.748;12.106;2023-12-20T12:46:59;37.70;;;31.60;;
12631;SDS011;6381;45.748;12.106;2023-12-20T12:49:32;44.50;;;33.33;;
12631;SDS011;6381;45.748;12.106;2023-12-20T12:52:04;37.30;;;31.80;;
12631;SDS011;6381;45.748;12.106;2023-12-20T12:54:39;44.70;;;35.23;;
12631;SDS011;6381;45.748;12.106;2023-12-20T12:57:14;43.37;;;34.50;;
12631;SDS011;6381;45.748;12.106;2023-12-20T12:59:47;46.50;;;36.20;;
12631;SDS011;6381;45.748;12.106;2023-12-20T13:02:19;51.40;;;39.23;;
12631;SDS011;6381;45.748;12.106;2023-12-20T13:04:50;54.53;;;42.70;;
12631;SDS011;6381;45.748;12.106;2023-12-20T13:07:21;54.73;;;42.43;;
12631;SDS011;6381;45.748;12.106;2023-12-20T13:09:55;57.10;;;43.10;;
12631;SDS011;6381;45.748;12.106;2023-12-20T13:12:27;57.43;;;45.43;;
12631;SDS011;6381;45.748;12.106;2023-12-20T13:14:58;54.13;;;44.33;;
12631;SDS011;6381;45.748;12.106;2023-12-20T13:17:31;59.53;;;45.20;;
12631;SDS011;6381;45.748;12.106;2023-12-20T13:20:03;57.27;;;46.43;;
12631;SDS011;6381;45.748;12.106;2023-12-20T13:22:37;61.63;;;45.77;;
12631;SDS011;6381;45.748;12.106;2023-12-20T13:25:07;59.53;;;46.07;;
12631;SDS011;6381;45.748;12.106;2023-12-20T13:27:39;56.57;;;46.47;;
12631;SDS011;6381;45.748;12.106;2023-12-20T13:30:12;56.93;;;45.23;;
12631;SDS011;6381;45.748;12.106;2023-12-20T13:32:45;58.63;;;47.13;;
12631;SDS011;6381;45.748;12.106;2023-12-20T13:35:17;57.10;;;46.13;;
12631;SDS011;6381;45.748;12.106;2023-12-20T13:37:49;57.10;;;43.67;;
12631;SDS011;6381;45.748;12.106;2023-12-20T13:40:21;55.03;;;45.50;;
12631;SDS011;6381;45.748;12.106;2023-12-20T13:42:52;52.30;;;44.20;;
12631;SDS011;6381;45.748;12.106;2023-12-20T13:45:24;51.53;;;42.37;;
12631;SDS011;6381;45.748;12.106;2023-12-20T13:47:59;53.90;;;41.90;;
12631;SDS011;6381;45.748;12.106;2023-12-20T13:50:52;56.43;;;44.57;;
12631;SDS011;6381;45.748;12.106;2023-12-20T13:53:24;66.43;;;47.50;;
12631;SDS011;6381;45.748;12.106;2023-12-20T13:55:55;57.97;;;47.50;;
12631;SDS011;6381;45.748;12.106;2023-12-20T13:58:26;59.80;;;45.33;;
12631;SDS011;6381;45.748;12.106;2023-12-20T14:00:58;57.37;;;46.03;;
12631;SDS011;6381;45.748;12.106;2023-12-20T14:03:28;53.67;;;42.67;;
12631;SDS011;6381;45.748;12.106;2023-12-20T14:06:01;52.83;;;43.40;;
12631;SDS011;6381;45.748;12.106;2023-12-20T14:08:33;49.13;;;42.83;;
12631;SDS011;6381;45.748;12.106;2023-12-20T14:11:06;46.63;;;39.67;;
12631;SDS011;6381;45.748;12.106;2023-12-20T14:13:40;45.50;;;38.57;;
12631;SDS011;6381;45.748;12.106;2023-12-20T14:16:12;41.87;;;36.50;;
12631;SDS011;6381;45.748;12.106;2023-12-20T14:18:44;40.63;;;35.57;;
12631;SDS011;6381;45.748;12.106;2023-12-20T14:21:25;38.47;;;34.27;;
12631;SDS011;6381;45.748;12.106;2023-12-20T14:23:56;37.40;;;32.17;;
12631;SDS011;6381;45.748;12.106;2023-12-20T14:26:33;40.13;;;34.10;;
12631;SDS011;6381;45.748;12.106;2023-12-20T14:29:05;38.47;;;33.77;;
12631;SDS011;6381;45.748;12.106;2023-12-20T14:31:38;40.50;;;34.57;;
12631;SDS011;6381;45.748;12.106;2023-12-20T14:34:10;42.97;;;34.03;;
12631;SDS011;6381;45.748;12.106;2023-12-20T14:36:40;39.80;;;33.77;;
12631;SDS011;6381;45.748;12.106;2023-12-20T14:39:11;38.47;;;32.27;;
12631;SDS011;6381;45.748;12.106;2023-12-20T14:41:42;37.03;;;31.90;;
12631;SDS011;6381;45.748;12.106;2023-12-20T14:44:12;36.90;;;31.93;;
12631;SDS011;6381;45.748;12.106;2023-12-20T14:46:44;35.53;;;31.70;;
12631;SDS011;6381;45.748;12.106;2023-12-20T14:49:13;36.33;;;31.10;;
12631;SDS011;6381;45.748;12.106;2023-12-20T14:51:44;38.50;;;31.30;;
12631;SDS011;6381;45.748;12.106;2023-12-20T14:54:15;40.50;;;32.23;;